sensor_id;sensor_type;location;lat;lon;timestamp;P1;durP1;ratioP1;P2;durP2;ratioP2
71856;SDS011;63344;46.980;28.882;2024-03-25T00:02:30;4.28;;;2.15;;
71856;SDS011;63344;46.980;28.882;2024-03-25T00:05:04;5.63;;;2.35;;
71856;SDS011;63344;46.980;28.882;2024-03-25T00:07:52;5.40;;;2.85;;
71856;SDS011;63344;46.980;28.882;2024-03-25T00:10:32;6.07;;;2.55;;
71856;SDS011;63344;46.980;28.882;2024-03-25T00:13:01;5.72;;;2.45;;
71856;SDS011;63344;46.980;28.882;2024-03-25T00:15:38;3.15;;;1.50;;
71856;SDS011;63344;46.980;28.882;2024-03-25T00:21:17;3.72;;;1.98;;
71856;SDS011;63344;46.980;28.882;2024-03-25T00:23:49;5.00;;;2.50;;
71856;SDS011;63344;46.980;28.882;2024-03-25T00:26:31;3.38;;;2.05;;
71856;SDS011;63344;46.980;28.882;2024-03-25T00:29:37;5.72;;;2.17;;
71856;SDS011;63344;46.980;28.882;2024-03-25T00:32:24;3.95;;;1.88;;
71856;SDS011;63344;46.980;28.882;2024-03-25T00:38:21;3.97;;;1.98;;
71856;SDS011;63344;46.980;28.882;2024-03-25T00:41:23;4.18;;;2.30;;
71856;SDS011;63344;46.980;28.882;2024-03-25T00:44:28;6.50;;;3.15;;
71856;SDS011;63344;46.980;28.882;2024-03-25T00:47:04;4.55;;;2.00;;
71856;SDS011;63344;46.980;28.882;2024-03-25T00:50:19;5.28;;;2.00;;
71856;SDS011;63344;46.980;28.882;2024-03-25T00:53:23;6.95;;;2.83;;
71856;SDS011;63344;46.980;28.882;2024-03-25T00:55:58;4.78;;;1.80;;
71856;SDS011;63344;46.980;28.882;2024-03-25T00:58:57;8.23;;;2.65;;
71856;SDS011;63344;46.980;28.882;2024-03-25T01:01:40;7.43;;;2.33;;
71856;SDS011;63344;46.980;28.882;2024-03-25T01:04:17;3.83;;;1.55;;
71856;SDS011;63344;46.980;28.882;2024-03-25T01:07:16;4.25;;;1.88;;
71856;SDS011;63344;46.980;28.882;2024-03-25T01:13:04;5.82;;;2.72;;
71856;SDS011;63344;46.980;28.882;2024-03-25T01:18:58;4.88;;;2.53;;
71856;SDS011;63344;46.980;28.882;2024-03-25T01:25:07;5.07;;;2.47;;
71856;SDS011;63344;46.980;28.882;2024-03-25T01:30:48;7.47;;;3.03;;
71856;SDS011;63344;46.980;28.882;2024-03-25T01:34:02;4.43;;;1.88;;
71856;SDS011;63344;46.980;28.882;2024-03-25T01:36:36;7.47;;;3.72;;
71856;SDS011;63344;46.980;28.882;2024-03-25T01:39:16;5.10;;;2.08;;
71856;SDS011;63344;46.980;28.882;2024-03-25T01:42:06;7.65;;;3.00;;
71856;SDS011;63344;46.980;28.882;2024-03-25T01:44:45;7.63;;;3.17;;
71856;SDS011;63344;46.980;28.882;2024-03-25T01:47:29;4.43;;;1.77;;
71856;SDS011;63344;46.980;28.882;2024-03-25T01:50:16;5.95;;;2.35;;
71856;SDS011;63344;46.980;28.882;2024-03-25T01:53:12;6.22;;;2.22;;
71856;SDS011;63344;46.980;28.882;2024-03-25T01:56:03;3.30;;;1.63;;
71856;SDS011;63344;46.980;28.882;2024-03-25T01:58:50;1.83;;;1.25;;
71856;SDS011;63344;46.980;28.882;2024-03-25T02:01:23;3.53;;;1.95;;
71856;SDS011;63344;46.980;28.882;2024-03-25T02:06:33;4.47;;;1.98;;
71856;SDS011;63344;46.980;28.882;2024-03-25T02:09:22;4.32;;;1.92;;
71856;SDS011;63344;46.980;28.882;2024-03-25T02:11:57;4.40;;;1.80;;
71856;SDS011;63344;46.980;28.882;2024-03-25T02:14:29;3.55;;;2.08;;
71856;SDS011;63344;46.980;28.882;2024-03-25T02:17:20;6.25;;;3.08;;
71856;SDS011;63344;46.980;28.882;2024-03-25T02:19:55;2.35;;;1.25;;
71856;SDS011;63344;46.980;28.882;2024-03-25T02:22:33;4.38;;;2.47;;
71856;SDS011;63344;46.980;28.882;2024-03-25T02:25:11;3.33;;;1.17;;
71856;SDS011;63344;46.980;28.882;2024-03-25T02:27:46;5.00;;;1.85;;
71856;SDS011;63344;46.980;28.882;2024-03-25T02:33:18;3.75;;;1.38;;
71856;SDS011;63344;46.980;28.882;2024-03-25T02:41:48;2.97;;;1.65;;
71856;SDS011;63344;46.980;28.882;2024-03-25T02:44:43;7.70;;;3.28;;
71856;SDS011;63344;46.980;28.882;2024-03-25T02:47:30;6.20;;;2.97;;
71856;SDS011;63344;46.980;28.882;2024-03-25T02:50:22;3.95;;;2.38;;
71856;SDS011;63344;46.980;28.882;2024-03-25T02:53:03;3.58;;;1.85;;
71856;SDS011;63344;46.980;28.882;2024-03-25T02:55:49;3.95;;;1.40;;
71856;SDS011;63344;46.980;28.882;2024-03-25T02:58:47;3.85;;;1.83;;
71856;SDS011;63344;46.980;28.882;2024-03-25T03:01:30;6.15;;;2.75;;
71856;SDS011;63344;46.980;28.882;2024-03-25T03:04:05;6.53;;;2.60;;
71856;SDS011;63344;46.980;28.882;2024-03-25T03:06:39;3.65;;;1.88;;
71856;SDS011;63344;46.980;28.882;2024-03-25T03:09:09;4.32;;;1.83;;
71856;SDS011;63344;46.980;28.882;2024-03-25T03:12:04;5.45;;;2.08;;
71856;SDS011;63344;46.980;28.882;2024-03-25T03:14:45;5.35;;;2.50;;
71856;SDS011;63344;46.980;28.882;2024-03-25T03:17:38;5.45;;;2.45;;
71856;SDS011;63344;46.980;28.882;2024-03-25T03:20:26;5.93;;;2.53;;
71856;SDS011;63344;46.980;28.882;2024-03-25T03:22:58;6.13;;;2.30;;
71856;SDS011;63344;46.980;28.882;2024-03-25T03:25:27;7.40;;;2.67;;
71856;SDS011;63344;46.980;28.882;2024-03-25T03:28:06;5.72;;;2.78;;
71856;SDS011;63344;46.980;28.882;2024-03-25T03:31:00;6.10;;;2.83;;
71856;SDS011;63344;46.980;28.882;2024-03-25T03:33:35;7.28;;;2.88;;
71856;SDS011;63344;46.980;28.882;2024-03-25T03:36:22;7.57;;;2.53;;
71856;SDS011;63344;46.980;28.882;2024-03-25T03:42:15;7.13;;;3.05;;
71856;SDS011;63344;46.980;28.882;2024-03-25T03:45:14;8.45;;;3.10;;
71856;SDS011;63344;46.980;28.882;2024-03-25T03:47:51;6.70;;;3.15;;
71856;SDS011;63344;46.980;28.882;2024-03-25T03:50:23;8.63;;;2.65;;
71856;SDS011;63344;46.980;28.882;2024-03-25T03:53:06;5.68;;;2.72;;
71856;SDS011;63344;46.980;28.882;2024-03-25T03:56:00;5.80;;;2.67;;
71856;SDS011;63344;46.980;28.882;2024-03-25T03:58:47;7.13;;;2.83;;
71856;SDS011;63344;46.980;28.882;2024-03-25T04:01:32;8.25;;;2.88;;
71856;SDS011;63344;46.980;28.882;2024-03-25T04:04:07;7.60;;;3.35;;
71856;SDS011;63344;46.980;28.882;2024-03-25T04:06:42;8.57;;;3.30;;
71856;SDS011;63344;46.980;28.882;2024-03-25T04:09:48;6.88;;;2.92;;
71856;SDS011;63344;46.980;28.882;2024-03-25T04:12:17;8.07;;;3.75;;
71856;SDS011;63344;46.980;28.882;2024-03-25T04:15:13;7.68;;;4.18;;
71856;SDS011;63344;46.980;28.882;2024-03-25T04:17:45;8.65;;;4.32;;
71856;SDS011;63344;46.980;28.882;2024-03-25T04:20:42;6.65;;;3.53;;
71856;SDS011;63344;46.980;28.882;2024-03-25T04:23:14;6.68;;;3.90;;
71856;SDS011;63344;46.980;28.882;2024-03-25T04:25:50;8.20;;;3.05;;
71856;SDS011;63344;46.980;28.882;2024-03-25T04:28:30;9.32;;;4.13;;
71856;SDS011;63344;46.980;28.882;2024-03-25T04:31:35;5.53;;;3.05;;
71856;SDS011;63344;46.980;28.882;2024-03-25T04:37:31;4.85;;;1.85;;
71856;SDS011;63344;46.980;28.882;2024-03-25T04:43:19;4.10;;;2.50;;
71856;SDS011;63344;46.980;28.882;2024-03-25T04:45:56;7.32;;;2.70;;
71856;SDS011;63344;46.980;28.882;2024-03-25T04:51:44;3.92;;;1.63;;
71856;SDS011;63344;46.980;28.882;2024-03-25T04:54:20;4.43;;;1.45;;
71856;SDS011;63344;46.980;28.882;2024-03-25T05:11:46;3.72;;;1.48;;
71856;SDS011;63344;46.980;28.882;2024-03-25T05:14:53;6.72;;;3.85;;
71856;SDS011;63344;46.980;28.882;2024-03-25T05:29:45;4.93;;;1.65;;
71856;SDS011;63344;46.980;28.882;2024-03-25T05:49:11;4.20;;;1.90;;
71856;SDS011;63344;46.980;28.882;2024-03-25T05:52:24;2.83;;;1.70;;
71856;SDS011;63344;46.980;28.882;2024-03-25T05:56:00;3.45;;;1.67;;
71856;SDS011;63344;46.980;28.882;2024-03-25T06:46:08;2.58;;;1.40;;
71856;SDS011;63344;46.980;28.882;2024-03-25T06:58:06;3.03;;;0.73;;
71856;SDS011;63344;46.980;28.882;2024-03-25T07:04:35;4.28;;;2.03;;
71856;SDS011;63344;46.980;28.882;2024-03-25T07:12:42;3.83;;;1.65;;
71856;SDS011;63344;46.980;28.882;2024-03-25T07:46:55;3.15;;;1.50;;
71856;SDS011;63344;46.980;28.882;2024-03-25T08:40:41;4.05;;;2.80;;
71856;SDS011;63344;46.980;28.882;2024-03-25T08:56:31;3.28;;;2.15;;
71856;SDS011;63344;46.980;28.882;2024-03-25T08:59:49;3.42;;;2.42;;
71856;SDS011;63344;46.980;28.882;2024-03-25T09:19:54;3.88;;;2.22;;
71856;SDS011;63344;46.980;28.882;2024-03-25T11:59:30;4.07;;;2.40;;
71856;SDS011;63344;46.980;28.882;2024-03-25T14:45:06;7.40;;;4.70;;
71856;SDS011;63344;46.980;28.882;2024-03-25T16:45:18;10.68;;;4.50;;
71856;SDS011;63344;46.980;28.882;2024-03-25T17:44:28;14.32;;;7.30;;
71856;SDS011;63344;46.980;28.882;2024-03-25T19:03:37;7.18;;;4.45;;
71856;SDS011;63344;46.980;28.882;2024-03-25T19:53:33;10.73;;;6.65;;
71856;SDS011;63344;46.980;28.882;2024-03-25T20:01:06;10.70;;;6.32;;
71856;SDS011;63344;46.980;28.882;2024-03-25T20:33:41;9.95;;;5.60;;
71856;SDS011;63344;46.980;28.882;2024-03-25T21:16:55;7.07;;;2.95;;
71856;SDS011;63344;46.980;28.882;2024-03-25T21:20:09;7.65;;;3.58;;
71856;SDS011;63344;46.980;28.882;2024-03-25T21:47:44;3.65;;;1.45;;
71856;SDS011;63344;46.980;28.882;2024-03-25T21:50:30;7.20;;;2.28;;
71856;SDS011;63344;46.980;28.882;2024-03-25T22:01:10;6.28;;;2.10;;
71856;SDS011;63344;46.980;28.882;2024-03-25T22:04:13;4.57;;;1.92;;
71856;SDS011;63344;46.980;28.882;2024-03-25T22:06:56;4.25;;;1.38;;
71856;SDS011;63344;46.980;28.882;2024-03-25T22:10:07;3.58;;;1.70;;
71856;SDS011;63344;46.980;28.882;2024-03-25T22:21:15;6.45;;;1.95;;
71856;SDS011;63344;46.980;28.882;2024-03-25T22:24:44;5.72;;;2.15;;
71856;SDS011;63344;46.980;28.882;2024-03-25T22:28:24;4.43;;;1.50;;
71856;SDS011;63344;46.980;28.882;2024-03-25T22:37:28;5.20;;;1.60;;
71856;SDS011;63344;46.980;28.882;2024-03-25T22:40:34;6.03;;;2.08;;
71856;SDS011;63344;46.980;28.882;2024-03-25T22:43:10;3.78;;;1.50;;
71856;SDS011;63344;46.980;28.882;2024-03-25T22:46:35;3.67;;;1.65;;
71856;SDS011;63344;46.980;28.882;2024-03-25T22:49:29;5.47;;;1.58;;
71856;SDS011;63344;46.980;28.882;2024-03-25T22:55:08;5.00;;;2.05;;
71856;SDS011;63344;46.980;28.882;2024-03-25T22:58:19;4.43;;;2.03;;
71856;SDS011;63344;46.980;28.882;2024-03-25T23:00:49;4.68;;;1.63;;
71856;SDS011;63344;46.980;28.882;2024-03-25T23:03:41;3.55;;;2.03;;
71856;SDS011;63344;46.980;28.882;2024-03-25T23:09:57;4.97;;;1.63;;
71856;SDS011;63344;46.980;28.882;2024-03-25T23:13:05;5.40;;;2.10;;
71856;SDS011;63344;46.980;28.882;2024-03-25T23:15:51;6.28;;;1.67;;
71856;SDS011;63344;46.980;28.882;2024-03-25T23:22:02;3.92;;;1.52;;
71856;SDS011;63344;46.980;28.882;2024-03-25T23:25:08;3.08;;;1.85;;
71856;SDS011;63344;46.980;28.882;2024-03-25T23:35:37;5.22;;;2.03;;
71856;SDS011;63344;46.980;28.882;2024-03-25T23:38:11;3.58;;;1.80;;
71856;SDS011;63344;46.980;28.882;2024-03-25T23:41:07;6.35;;;1.80;;
71856;SDS011;63344;46.980;28.882;2024-03-25T23:44:01;4.18;;;1.83;;
71856;SDS011;63344;46.980;28.882;2024-03-25T23:53:53;4.32;;;2.03;;
71856;SDS011;63344;46.980;28.882;2024-03-25T23:56:42;5.65;;;2.08;;
